createdAt,value
2017-12-12T00:00:49.821Z,7.60
2017-12-12T00:03:17.293Z,7.70
2017-12-12T00:05:45.548Z,7.60
2017-12-12T00:08:13.021Z,7.60
2017-12-12T00:10:41.260Z,7.70
2017-12-12T00:13:08.869Z,7.60
2017-12-12T00:15:37.104Z,7.60
2017-12-12T00:18:04.577Z,7.60
2017-12-12T00:20:32.070Z,7.60
2017-12-12T00:22:59.545Z,7.50
2017-12-12T00:25:27.314Z,7.60
2017-12-12T00:27:54.805Z,7.60
2017-12-12T00:30:22.277Z,7.50
2017-12-12T00:32:50.517Z,7.40
2017-12-12T00:35:18.009Z,7.40
2017-12-12T00:37:45.485Z,7.40
2017-12-12T00:40:13.722Z,7.40
2017-12-12T00:42:41.217Z,7.40
2017-12-12T00:45:09.457Z,7.40
2017-12-12T00:47:36.929Z,7.40
2017-12-12T00:50:04.423Z,7.40
2017-12-12T00:52:32.205Z,7.40
2017-12-12T00:54:59.685Z,7.40
2017-12-12T00:57:27.189Z,7.40
2017-12-12T00:59:55.433Z,7.40
2017-12-12T01:02:22.905Z,7.40
2017-12-12T01:04:51.166Z,7.40
2017-12-12T01:07:18.680Z,7.40
2017-12-12T01:09:46.689Z,7.40
2017-12-12T01:12:14.738Z,7.40
2017-12-12T01:14:42.217Z,7.40
2017-12-12T01:17:09.690Z,7.30
2017-12-12T01:19:37.504Z,7.30
2017-12-12T01:22:05.002Z,7.30
2017-12-12T01:24:32.481Z,7.30
2017-12-12T01:27:00.750Z,7.10
2017-12-12T01:29:28.993Z,7.10
2017-12-12T01:31:56.465Z,7.10
2017-12-12T01:34:23.957Z,7.00
2017-12-12T01:36:51.449Z,6.90
2017-12-12T01:39:18.925Z,6.70
2017-12-12T01:41:46.417Z,6.60
2017-12-12T01:44:14.661Z,6.50
2017-12-12T01:46:42.133Z,6.40
2017-12-12T01:49:09.629Z,6.40
2017-12-12T01:51:37.150Z,6.30
2017-12-12T01:54:04.641Z,6.20
2017-12-12T01:56:32.129Z,6.20
2017-12-12T01:58:59.601Z,6.20
2017-12-12T02:01:27.074Z,6.20
2017-12-12T02:03:54.673Z,6.10
2017-12-12T02:06:22.146Z,6.10
2017-12-12T02:08:49.621Z,6.00
2017-12-12T02:11:17.116Z,6.00
2017-12-12T02:13:44.589Z,6.00
2017-12-12T02:16:12.832Z,6.00
2017-12-12T02:18:40.333Z,6.00
2017-12-12T02:21:07.808Z,6.00
2017-12-12T02:23:35.281Z,6.00
2017-12-12T02:26:02.794Z,6.00
2017-12-12T02:28:31.030Z,6.00
2017-12-12T02:30:58.501Z,6.00
2017-12-12T02:33:25.997Z,6.00
2017-12-12T02:35:53.474Z,6.00
2017-12-12T02:38:20.950Z,6.00
2017-12-12T02:40:48.446Z,6.00
2017-12-12T02:43:16.684Z,6.00
2017-12-12T02:45:44.165Z,5.90
2017-12-12T02:48:11.896Z,5.90
2017-12-12T02:50:39.434Z,5.90
2017-12-12T02:53:06.905Z,5.80
2017-12-12T02:55:34.400Z,5.90
2017-12-12T02:58:01.873Z,5.90
2017-12-12T03:00:30.109Z,5.90
2017-12-12T03:02:57.601Z,5.90
2017-12-12T03:05:25.877Z,5.80
2017-12-12T03:07:54.114Z,5.70
2017-12-12T03:10:21.729Z,5.70
2017-12-12T03:12:49.969Z,5.50
2017-12-12T03:15:17.445Z,5.50
2017-12-12T03:17:45.702Z,5.40
2017-12-12T03:20:13.174Z,5.40
2017-12-12T03:22:40.649Z,5.30
2017-12-12T03:25:08.905Z,5.00
2017-12-12T03:27:36.377Z,5.00
2017-12-12T03:30:04.895Z,4.90
2017-12-12T03:32:32.398Z,4.90
2017-12-12T03:35:00.649Z,4.80
2017-12-12T03:37:28.122Z,4.80
2017-12-12T03:39:55.614Z,4.80
2017-12-12T03:42:23.084Z,4.70
2017-12-12T03:44:50.558Z,4.60
2017-12-12T03:47:18.049Z,4.50
2017-12-12T03:49:45.773Z,4.40
2017-12-12T03:52:13.245Z,4.30
2017-12-12T03:54:40.737Z,4.30
2017-12-12T03:57:08.209Z,4.30
2017-12-12T03:59:36.449Z,4.20
2017-12-12T04:02:03.953Z,4.20
2017-12-12T04:04:31.425Z,4.20
2017-12-12T04:06:58.899Z,4.10
2017-12-12T04:09:26.388Z,4.00
2017-12-12T04:11:53.861Z,4.00
2017-12-12T04:14:22.137Z,3.90
2017-12-12T04:16:50.398Z,3.90
2017-12-12T04:19:17.874Z,3.90
2017-12-12T04:21:47.088Z,3.90
2017-12-12T04:24:14.805Z,3.90
2017-12-12T04:26:42.277Z,3.90
2017-12-12T04:29:10.001Z,3.90
2017-12-12T04:31:37.493Z,3.90
2017-12-12T04:34:04.966Z,3.90
2017-12-12T04:36:33.205Z,3.90
2017-12-12T04:39:00.954Z,3.90
2017-12-12T04:41:28.445Z,3.80
2017-12-12T04:43:56.685Z,3.80
2017-12-12T04:46:24.177Z,3.90
2017-12-12T04:48:51.901Z,3.90
2017-12-12T04:51:19.390Z,3.90
2017-12-12T04:53:46.881Z,3.80
2017-12-12T04:56:15.117Z,3.80
2017-12-12T04:58:42.596Z,3.80
2017-12-12T05:01:11.347Z,3.80
2017-12-12T05:03:39.642Z,3.80
2017-12-12T05:06:07.109Z,3.80
2017-12-12T05:08:34.601Z,3.70
2017-12-12T05:11:02.072Z,3.70
2017-12-12T05:13:29.596Z,3.40
2017-12-12T05:15:57.852Z,3.10
2017-12-12T05:18:25.329Z,3.00
2017-12-12T05:20:53.002Z,3.00
2017-12-12T05:23:21.412Z,2.90
2017-12-12T05:25:48.946Z,2.80
2017-12-12T05:28:17.189Z,2.70
2017-12-12T05:30:45.013Z,2.70
2017-12-12T05:33:12.530Z,2.70
2017-12-12T05:35:40.820Z,2.70
2017-12-12T05:38:08.277Z,2.70
2017-12-12T05:40:36.544Z,2.70
2017-12-12T05:43:04.785Z,2.70
2017-12-12T05:45:32.277Z,2.70
2017-12-12T05:48:00.519Z,2.70
2017-12-12T05:50:28.090Z,2.70
2017-12-12T05:52:55.610Z,2.70
2017-12-12T05:55:23.097Z,2.70
2017-12-12T05:57:50.622Z,2.70
2017-12-12T06:00:18.591Z,2.70
2017-12-12T06:02:46.096Z,2.70
2017-12-12T06:05:14.871Z,2.80
2017-12-12T06:07:44.291Z,2.80
2017-12-12T06:10:12.022Z,2.80
2017-12-12T06:12:39.526Z,2.80
2017-12-12T06:15:09.860Z,2.70
2017-12-12T06:17:37.487Z,2.70
2017-12-12T06:20:06.050Z,2.80
2017-12-12T06:22:33.567Z,2.80
2017-12-12T06:25:01.521Z,2.80
2017-12-12T06:27:29.015Z,2.80
2017-12-12T06:29:56.514Z,2.80
2017-12-12T06:32:23.981Z,2.80
2017-12-12T06:34:52.224Z,2.80
2017-12-12T06:37:19.718Z,2.80
2017-12-12T06:39:47.952Z,2.80
2017-12-12T06:42:15.426Z,2.80
2017-12-12T06:44:42.923Z,2.80
2017-12-12T06:47:10.398Z,2.80
2017-12-12T06:49:37.873Z,2.80
2017-12-12T06:52:05.525Z,2.90
2017-12-12T06:54:32.998Z,2.90
2017-12-12T06:57:00.469Z,2.80
2017-12-12T06:59:27.962Z,2.90
2017-12-12T07:01:56.257Z,2.90
2017-12-12T07:04:23.690Z,2.90
2017-12-12T07:06:51.965Z,2.80
2017-12-12T07:09:20.214Z,2.90
2017-12-12T07:11:47.692Z,2.80
2017-12-12T07:14:16.008Z,2.80
2017-12-12T07:16:43.485Z,2.80
2017-12-12T07:19:11.087Z,2.90
2017-12-12T07:21:39.352Z,2.90
2017-12-12T07:24:06.825Z,2.90
2017-12-12T07:26:35.098Z,3.00
2017-12-12T07:29:03.384Z,3.00
2017-12-12T07:31:31.173Z,2.90
2017-12-12T07:33:58.650Z,2.90
2017-12-12T07:36:26.178Z,3.00
2017-12-12T07:38:53.646Z,3.00
2017-12-12T07:41:21.117Z,3.00
2017-12-12T07:43:48.605Z,3.00
2017-12-12T07:46:16.085Z,3.00
2017-12-12T07:48:44.325Z,3.10
2017-12-12T07:51:11.814Z,3.00
2017-12-12T07:53:39.294Z,3.00
2017-12-12T07:56:07.904Z,3.10
2017-12-12T07:58:36.214Z,3.10
2017-12-12T08:01:03.685Z,3.10
2017-12-12T08:03:31.921Z,3.20
2017-12-12T08:05:59.634Z,3.20
2017-12-12T08:08:27.874Z,3.30
2017-12-12T08:10:55.565Z,3.30
2017-12-12T08:13:23.826Z,3.30
2017-12-12T08:15:51.310Z,3.30
2017-12-12T08:18:18.941Z,3.40
2017-12-12T08:20:46.442Z,3.40
2017-12-12T08:23:13.909Z,3.40
2017-12-12T08:25:41.382Z,3.40
2017-12-12T08:28:09.681Z,3.40
2017-12-12T08:30:37.157Z,3.40
2017-12-12T08:33:05.445Z,3.40
2017-12-12T08:35:33.701Z,3.40
2017-12-12T08:38:01.170Z,3.40
2017-12-12T08:40:29.629Z,3.40
2017-12-12T08:42:57.346Z,3.40
2017-12-12T08:45:24.821Z,3.40
2017-12-12T08:47:52.297Z,3.40
2017-12-12T08:50:19.785Z,3.50
2017-12-12T08:52:48.028Z,3.50
2017-12-12T08:55:15.500Z,3.50
2017-12-12T08:57:42.990Z,3.50
2017-12-12T09:00:10.466Z,3.50
2017-12-12T09:02:37.942Z,3.50
2017-12-12T09:05:05.438Z,3.50
2017-12-12T09:07:33.678Z,3.70
2017-12-12T09:10:01.323Z,3.70
2017-12-12T09:12:28.817Z,3.70
2017-12-12T09:14:56.541Z,3.70
2017-12-12T09:17:24.018Z,3.70
2017-12-12T09:19:51.509Z,3.60
2017-12-12T09:22:18.981Z,3.70
2017-12-12T09:24:46.461Z,3.70
2017-12-12T09:27:13.968Z,3.70
2017-12-12T09:29:41.441Z,3.80
2017-12-12T09:32:09.681Z,3.90
2017-12-12T09:34:37.174Z,3.90
2017-12-12T09:37:05.430Z,3.90
2017-12-12T09:39:32.904Z,3.90
2017-12-12T09:42:01.157Z,4.00
2017-12-12T09:44:28.625Z,4.00
2017-12-12T09:46:56.865Z,4.10
2017-12-12T09:49:24.363Z,4.10
2017-12-12T09:51:51.836Z,4.10
2017-12-12T09:54:20.135Z,4.20
2017-12-12T09:56:50.393Z,4.20
2017-12-12T09:59:18.212Z,4.30
2017-12-12T10:01:45.706Z,4.30
2017-12-12T10:04:13.505Z,4.30
2017-12-12T10:06:41.013Z,4.30
2017-12-12T10:09:08.494Z,4.30
2017-12-12T10:11:36.105Z,4.30
2017-12-12T10:14:03.582Z,4.30
2017-12-12T10:16:31.061Z,4.30
2017-12-12T10:18:58.550Z,4.30
2017-12-12T10:21:26.245Z,4.40
2017-12-12T10:23:53.721Z,4.40
2017-12-12T10:26:21.214Z,4.50
2017-12-12T10:28:48.686Z,4.40
2017-12-12T10:31:16.158Z,4.50
2017-12-12T10:33:44.417Z,4.50
2017-12-12T10:36:12.666Z,4.50
2017-12-12T10:38:40.142Z,4.40
2017-12-12T10:41:07.635Z,4.50
2017-12-12T10:43:35.181Z,4.50
2017-12-12T10:46:03.422Z,4.60
2017-12-12T10:48:30.922Z,4.60
2017-12-12T10:50:58.468Z,4.70
2017-12-12T10:53:25.905Z,4.70
2017-12-12T10:55:53.402Z,4.70
2017-12-12T10:58:20.881Z,4.70
2017-12-12T11:00:48.641Z,4.80
2017-12-12T11:03:16.133Z,4.80
2017-12-12T11:05:43.761Z,4.90
2017-12-12T11:08:11.233Z,4.80
2017-12-12T11:10:38.727Z,4.90
2017-12-12T11:13:06.198Z,4.90
2017-12-12T11:15:34.438Z,5.00
2017-12-12T11:18:01.929Z,5.00
2017-12-12T11:20:30.165Z,5.00
2017-12-12T11:22:58.401Z,5.00
2017-12-12T11:25:25.901Z,5.00
2017-12-12T11:27:53.387Z,4.90
2017-12-12T11:30:21.645Z,4.90
2017-12-12T11:32:49.221Z,4.80
2017-12-12T11:35:17.461Z,4.90
2017-12-12T11:37:45.761Z,5.00
2017-12-12T11:40:13.266Z,5.00
2017-12-12T11:42:40.737Z,5.00
2017-12-12T11:45:08.210Z,4.90
2017-12-12T11:47:35.702Z,4.80
2017-12-12T11:50:03.945Z,4.90
2017-12-12T11:52:31.493Z,4.90
2017-12-12T11:54:58.985Z,4.90
2017-12-12T11:57:26.457Z,4.70
2017-12-12T11:59:54.698Z,4.70
2017-12-12T12:02:22.192Z,4.70
2017-12-12T12:04:50.437Z,4.70
2017-12-12T12:07:17.913Z,4.60
2017-12-12T12:09:46.173Z,4.70
2017-12-12T12:12:13.645Z,4.70
2017-12-12T12:14:41.885Z,4.60
2017-12-12T12:17:09.630Z,4.60
2017-12-12T12:19:37.326Z,4.70
2017-12-12T12:22:04.805Z,4.60
2017-12-12T12:24:33.069Z,4.60
2017-12-12T12:27:01.313Z,4.70
2017-12-12T12:29:28.785Z,4.70
2017-12-12T12:31:56.405Z,4.70
2017-12-12T12:34:23.878Z,4.70
2017-12-12T12:36:51.350Z,4.70
2017-12-12T12:39:18.838Z,4.70
2017-12-12T12:41:46.313Z,4.70
2017-12-12T12:44:14.554Z,4.70
2017-12-12T12:46:42.103Z,4.70
2017-12-12T12:49:09.549Z,4.80
2017-12-12T12:51:37.021Z,4.80
2017-12-12T12:54:04.537Z,4.70
2017-12-12T12:56:32.312Z,4.60
2017-12-12T12:58:59.845Z,4.60
2017-12-12T13:01:28.109Z,4.00
2017-12-12T13:03:56.349Z,3.60
2017-12-12T13:06:24.590Z,3.40
2017-12-12T13:08:52.086Z,3.40
2017-12-12T13:11:19.557Z,3.30
2017-12-12T13:13:47.029Z,3.40
2017-12-12T13:16:15.286Z,3.40
2017-12-12T13:18:42.774Z,3.40
2017-12-12T13:21:10.258Z,3.50
2017-12-12T13:23:37.753Z,3.60
2017-12-12T13:26:06.013Z,3.70
2017-12-12T13:28:33.489Z,3.70
2017-12-12T13:31:00.993Z,3.70
2017-12-12T13:33:28.468Z,3.80
2017-12-12T13:35:55.946Z,3.90
2017-12-12T13:38:23.797Z,4.00
2017-12-12T13:40:51.273Z,4.00
2017-12-12T13:43:18.822Z,4.00
2017-12-12T13:45:46.413Z,4.00
2017-12-12T13:48:14.983Z,4.10
2017-12-12T13:50:42.453Z,4.10
2017-12-12T13:53:09.950Z,4.20
2017-12-12T13:55:37.430Z,4.20
2017-12-12T13:58:04.909Z,4.20
2017-12-12T14:00:32.401Z,4.20
2017-12-12T14:03:00.641Z,4.20
2017-12-12T14:05:28.346Z,4.10
2017-12-12T14:07:55.842Z,4.10
2017-12-12T14:10:23.317Z,4.00
2017-12-12T14:12:50.793Z,4.00
2017-12-12T14:15:18.284Z,3.90
2017-12-12T14:17:45.855Z,3.60
2017-12-12T14:20:13.416Z,3.50
2017-12-12T14:22:40.910Z,3.30
2017-12-12T14:25:08.386Z,3.30
2017-12-12T14:27:36.637Z,3.40
2017-12-12T14:30:04.142Z,3.40
2017-12-12T14:32:31.806Z,3.40
2017-12-12T14:34:59.284Z,3.50
2017-12-12T14:37:26.781Z,3.60
2017-12-12T14:39:54.257Z,3.60
2017-12-12T14:42:22.494Z,3.70
2017-12-12T14:44:49.993Z,3.70
2017-12-12T14:47:18.242Z,3.70
2017-12-12T14:49:45.717Z,3.70
2017-12-12T14:52:13.982Z,3.40
2017-12-12T14:54:42.259Z,3.30
2017-12-12T14:57:09.705Z,3.30
2017-12-12T14:59:37.243Z,3.30
2017-12-12T15:02:04.994Z,3.20
2017-12-12T15:04:32.466Z,3.20
2017-12-12T15:07:00.028Z,3.10
2017-12-12T15:09:27.513Z,3.00
2017-12-12T15:11:56.533Z,3.00
2017-12-12T15:14:24.773Z,3.00
2017-12-12T15:16:52.249Z,3.00
2017-12-12T15:19:21.169Z,2.90
2017-12-12T15:21:48.658Z,2.80
2017-12-12T15:24:16.137Z,2.80
2017-12-12T15:26:43.621Z,2.70
2017-12-12T15:29:11.885Z,2.70
2017-12-12T15:31:39.546Z,2.60
2017-12-12T15:34:07.798Z,2.60
2017-12-12T15:36:35.296Z,2.60
2017-12-12T15:39:02.809Z,2.60
2017-12-12T15:41:30.297Z,2.60
2017-12-12T15:43:58.553Z,2.60
2017-12-12T15:46:26.029Z,2.60
2017-12-12T15:48:54.268Z,2.50
2017-12-12T15:51:21.765Z,2.50
2017-12-12T15:53:50.169Z,2.50
2017-12-12T15:56:17.657Z,2.50
2017-12-12T15:58:48.069Z,2.50
2017-12-12T16:01:18.461Z,2.50
2017-12-12T16:03:49.710Z,2.50
2017-12-12T16:06:18.385Z,2.50
2017-12-12T16:08:49.731Z,2.50
2017-12-12T16:11:18.706Z,2.50
2017-12-12T16:13:46.801Z,2.50
2017-12-12T16:16:15.566Z,2.50
2017-12-12T16:18:47.955Z,2.50
2017-12-12T16:21:18.072Z,2.50
2017-12-12T16:23:45.591Z,2.50
2017-12-12T16:26:13.109Z,2.40
2017-12-12T16:28:40.751Z,2.40
2017-12-12T16:31:09.090Z,2.40
2017-12-12T16:33:36.817Z,2.40
2017-12-12T16:36:04.415Z,2.30
2017-12-12T16:38:37.717Z,2.30
2017-12-12T16:41:06.547Z,2.20
2017-12-12T16:43:35.914Z,2.30
2017-12-12T16:46:05.766Z,2.20
2017-12-12T16:48:33.314Z,2.20
2017-12-12T16:51:01.386Z,2.20
2017-12-12T16:53:31.489Z,2.00
2017-12-12T16:56:01.434Z,2.00
2017-12-12T16:58:32.219Z,2.00
2017-12-12T17:01:02.034Z,2.00
2017-12-12T17:03:32.942Z,2.00
2017-12-12T17:06:03.703Z,2.00
2017-12-12T17:08:32.908Z,2.10
2017-12-12T17:11:04.522Z,2.10
2017-12-12T17:13:37.912Z,2.10
2017-12-12T17:16:07.422Z,2.10
2017-12-12T17:18:35.960Z,1.90
2017-12-12T17:21:03.464Z,1.90
2017-12-12T17:26:10.781Z,2.10
2017-12-12T17:28:38.492Z,2.10
2017-12-12T17:31:05.989Z,2.10
2017-12-12T17:33:34.290Z,2.20
2017-12-12T17:36:01.887Z,2.10
2017-12-12T17:38:29.373Z,2.10
2017-12-12T17:40:56.871Z,2.00
2017-12-12T17:43:24.502Z,2.00
2017-12-12T17:45:52.001Z,1.90
2017-12-12T17:48:20.249Z,1.80
2017-12-12T17:50:47.954Z,1.80
2017-12-12T17:53:27.442Z,1.70
2017-12-12T17:55:54.961Z,1.70
2017-12-12T17:58:22.433Z,1.70
2017-12-12T18:00:50.209Z,1.80
2017-12-12T18:03:17.709Z,1.80
2017-12-12T18:05:45.841Z,1.70
2017-12-12T18:08:13.357Z,1.70
2017-12-12T18:10:41.882Z,1.60
2017-12-12T18:13:09.572Z,1.60
2017-12-12T18:15:47.213Z,1.60
2017-12-12T18:18:14.698Z,1.60
2017-12-12T18:20:42.262Z,1.50
2017-12-12T18:23:09.753Z,1.40
2017-12-12T18:25:37.405Z,1.40
2017-12-12T18:28:05.677Z,1.50
2017-12-12T18:30:33.178Z,1.40
2017-12-12T18:33:00.667Z,1.40
2017-12-12T18:35:28.922Z,1.30
2017-12-12T18:37:56.428Z,1.30
2017-12-12T18:40:23.909Z,1.20
2017-12-12T18:42:52.159Z,1.00
2017-12-12T18:45:19.661Z,1.00
2017-12-12T18:47:47.147Z,0.90
2017-12-12T18:50:14.825Z,0.90
2017-12-12T18:52:42.437Z,0.80
2017-12-12T18:55:09.990Z,0.80
2017-12-12T18:57:37.486Z,0.70
2017-12-12T19:00:04.988Z,0.60
2017-12-12T19:02:33.243Z,0.50
2017-12-12T19:05:00.781Z,0.50
2017-12-12T19:07:29.105Z,0.40
2017-12-12T19:09:57.358Z,0.40
2017-12-12T19:12:24.837Z,0.40
2017-12-12T19:14:53.106Z,0.60
2017-12-12T19:17:21.349Z,0.70
2017-12-12T19:19:48.828Z,0.70
2017-12-12T19:22:17.026Z,0.80
2017-12-12T19:24:45.398Z,0.70
2017-12-12T19:27:13.644Z,0.70
2017-12-12T19:29:41.328Z,0.70
2017-12-12T19:32:08.834Z,0.70
2017-12-12T19:34:36.317Z,0.80
2017-12-12T19:37:04.076Z,0.90
2017-12-12T19:39:31.565Z,1.00
2017-12-12T19:41:59.817Z,0.90
2017-12-12T19:44:27.454Z,0.90
2017-12-12T19:46:54.933Z,0.90
2017-12-12T19:49:23.182Z,0.80
2017-12-12T19:51:50.690Z,0.80
2017-12-12T19:54:18.945Z,0.90
2017-12-12T19:56:46.421Z,0.90
2017-12-12T19:59:13.974Z,0.90
2017-12-12T20:01:41.450Z,1.00
2017-12-12T20:04:09.697Z,1.00
2017-12-12T20:06:37.434Z,1.00
2017-12-12T20:09:04.909Z,1.00
2017-12-12T20:11:32.401Z,1.10
2017-12-12T20:14:00.665Z,1.10
2017-12-12T20:16:28.486Z,1.10
2017-12-12T20:18:55.969Z,1.20
2017-12-12T20:21:23.478Z,1.40
2017-12-12T20:23:50.963Z,1.40
2017-12-12T20:26:18.445Z,1.50
2017-12-12T20:28:45.942Z,1.60
2017-12-12T20:31:13.427Z,1.60
2017-12-12T20:33:40.910Z,1.60
2017-12-12T20:36:08.649Z,1.50
2017-12-12T20:38:36.130Z,1.50
2017-12-12T20:41:03.701Z,1.40
2017-12-12T20:43:31.218Z,1.50
2017-12-12T20:45:58.701Z,1.50
2017-12-12T20:48:26.181Z,1.50
2017-12-12T20:50:53.706Z,1.50
2017-12-12T20:53:21.185Z,1.50
2017-12-12T20:55:48.666Z,1.60
2017-12-12T20:58:17.165Z,1.60
2017-12-12T21:00:44.746Z,1.60
2017-12-12T21:03:12.221Z,1.70
2017-12-12T21:05:39.726Z,1.70
2017-12-12T21:08:07.976Z,1.80
2017-12-12T21:10:35.646Z,1.70
2017-12-12T21:13:03.137Z,1.80
2017-12-12T21:15:30.618Z,1.80
2017-12-12T21:17:58.097Z,1.60
2017-12-12T21:20:25.602Z,1.50
2017-12-12T21:22:53.093Z,1.60
2017-12-12T21:25:20.650Z,1.50
2017-12-12T21:27:48.213Z,1.30
2017-12-12T21:30:15.698Z,1.20
2017-12-12T21:32:43.178Z,1.30
2017-12-12T21:35:11.450Z,1.20
2017-12-12T21:37:39.786Z,1.20
2017-12-12T21:40:07.269Z,1.20
2017-12-12T21:42:34.773Z,1.20
2017-12-12T21:45:02.258Z,1.40
2017-12-12T21:47:29.737Z,1.50
2017-12-12T21:49:57.237Z,1.50
2017-12-12T21:52:24.738Z,1.50
2017-12-12T21:54:52.217Z,1.40
2017-12-12T21:57:19.724Z,1.40
2017-12-12T21:59:47.201Z,1.30
2017-12-12T22:02:14.681Z,1.30
2017-12-12T22:04:42.185Z,1.30
2017-12-12T22:07:09.889Z,1.30
2017-12-12T22:09:37.384Z,1.30
2017-12-12T22:12:05.654Z,1.20
2017-12-12T22:14:34.125Z,1.20
2017-12-12T22:17:01.615Z,1.10
2017-12-12T22:19:29.228Z,1.10
2017-12-12T22:21:57.501Z,1.10
2017-12-12T22:24:24.984Z,1.00
2017-12-12T22:26:53.267Z,1.00
2017-12-12T22:29:21.520Z,0.90
2017-12-12T22:31:49.002Z,0.90
2017-12-12T22:34:17.269Z,0.90
2017-12-12T22:36:45.801Z,0.90
2017-12-12T22:39:13.289Z,0.90
2017-12-12T22:41:40.789Z,1.00
2017-12-12T22:44:09.030Z,1.00
2017-12-12T22:46:36.508Z,1.00
2017-12-12T22:49:04.765Z,0.90
2017-12-12T22:51:33.017Z,0.90
2017-12-12T22:54:00.493Z,0.90
2017-12-12T22:56:27.995Z,0.90
2017-12-12T22:58:55.469Z,0.80
2017-12-12T23:01:22.946Z,0.80
2017-12-12T23:03:50.452Z,0.70
2017-12-12T23:06:17.941Z,0.80
2017-12-12T23:08:45.426Z,0.80
2017-12-12T23:11:12.923Z,0.90
2017-12-12T23:13:41.165Z,1.00
2017-12-12T23:16:08.641Z,0.90
2017-12-12T23:18:37.126Z,1.10
2017-12-12T23:21:04.617Z,1.10
2017-12-12T23:23:32.104Z,1.00
2017-12-12T23:25:59.605Z,0.90
2017-12-12T23:28:27.885Z,0.90
2017-12-12T23:30:56.129Z,0.90
2017-12-12T23:33:23.625Z,0.90
2017-12-12T23:35:51.104Z,0.90
2017-12-12T23:38:18.580Z,0.90
2017-12-12T23:40:46.841Z,1.00
2017-12-12T23:43:14.317Z,1.00
2017-12-12T23:45:41.793Z,1.10
2017-12-12T23:48:09.297Z,1.10
2017-12-12T23:50:36.773Z,1.10
2017-12-12T23:53:04.245Z,1.10
2017-12-12T23:55:31.740Z,1.10
2017-12-12T23:57:59.982Z,1.10
